createdAt,value
2018-11-07T00:02:00.868Z,99413.84
2018-11-07T00:04:29.470Z,99417.80
2018-11-07T00:06:58.098Z,99416.02
2018-11-07T00:09:26.736Z,99416.81
2018-11-07T00:11:55.333Z,99416.40
2018-11-07T00:14:24.136Z,99412.14
2018-11-07T00:16:53.359Z,99410.86
2018-11-07T00:19:21.987Z,99409.06
2018-11-07T00:21:50.623Z,99406.59
2018-11-07T00:24:19.164Z,99401.40
2018-11-07T00:26:47.744Z,99401.31
2018-11-07T00:29:16.350Z,99405.25
2018-11-07T00:31:45.034Z,99404.40
2018-11-07T00:34:13.981Z,99412.45
2018-11-07T00:36:42.557Z,99407.80
2018-11-07T00:39:11.273Z,99405.53
2018-11-07T00:41:39.878Z,99409.31
2018-11-07T00:44:08.486Z,99414.48
2018-11-07T00:46:37.081Z,99421.31
2018-11-07T00:49:05.771Z,99418.08
2018-11-07T00:51:34.393Z,99416.28
2018-11-07T00:54:03.038Z,99414.77
2018-11-07T00:56:31.689Z,99409.27
2018-11-07T00:59:00.299Z,99407.95
2018-11-07T01:01:29.029Z,99403.02
2018-11-07T01:03:57.610Z,99402.12
2018-11-07T01:06:26.223Z,99399.66
2018-11-07T01:08:54.801Z,99398.70
2018-11-07T01:11:23.387Z,99407.56
2018-11-07T01:13:51.944Z,99399.84
2018-11-07T01:16:20.578Z,99394.36
2018-11-07T01:18:49.166Z,99391.04
2018-11-07T01:21:17.743Z,99395.63
2018-11-07T01:23:46.319Z,99392.23
2018-11-07T01:26:14.933Z,99397.09
2018-11-07T01:28:43.539Z,99394.92
2018-11-07T01:31:12.572Z,99399.05
2018-11-07T01:33:41.161Z,99397.90
2018-11-07T01:36:09.826Z,99397.09
2018-11-07T01:38:38.466Z,99401.27
2018-11-07T01:41:07.070Z,99398.80
2018-11-07T01:43:35.657Z,99397.48
2018-11-07T01:46:04.305Z,99405.05
2018-11-07T01:48:32.966Z,99408.55
2018-11-07T01:51:01.604Z,99402.41
2018-11-07T01:53:30.255Z,99399.89
2018-11-07T01:55:58.881Z,99399.05
2018-11-07T01:58:27.461Z,99400.75
2018-11-07T02:00:56.110Z,99393.55
2018-11-07T02:03:24.904Z,99386.78
2018-11-07T02:05:53.487Z,99385.20
2018-11-07T02:08:22.392Z,99391.89
2018-11-07T02:10:50.975Z,99390.48
2018-11-07T02:13:19.565Z,99397.44
2018-11-07T02:15:48.189Z,99391.55
2018-11-07T02:18:16.786Z,99394.16
2018-11-07T02:20:45.361Z,99400.25
2018-11-07T02:23:13.914Z,99400.89
2018-11-07T02:25:42.447Z,99389.86
2018-11-07T02:28:10.998Z,99391.26
2018-11-07T02:30:39.752Z,99391.37
2018-11-07T02:33:08.367Z,99389.83
2018-11-07T02:35:36.967Z,99394.52
2018-11-07T02:38:05.577Z,99395.21
2018-11-07T02:40:34.247Z,99393.89
2018-11-07T02:43:03.162Z,99399.55
2018-11-07T02:45:31.743Z,99396.95
2018-11-07T02:48:00.366Z,99395.91
2018-11-07T02:50:28.941Z,99392.95
2018-11-07T02:52:57.524Z,99392.49
2018-11-07T02:55:26.091Z,99394.81
2018-11-07T02:57:54.711Z,99389.63
2018-11-07T03:00:23.323Z,99401.98
2018-11-07T03:02:51.883Z,99397.64
2018-11-07T03:05:20.538Z,99407.13
2018-11-07T03:07:49.144Z,99405.38
2018-11-07T03:10:17.831Z,99399.47
2018-11-07T03:12:46.435Z,99406.73
2018-11-07T03:15:15.062Z,99407.09
2018-11-07T03:17:43.798Z,99410.45
2018-11-07T03:20:13.343Z,99407.35
2018-11-07T03:22:42.360Z,99405.06
2018-11-07T03:25:10.925Z,99410.92
2018-11-07T03:27:39.584Z,99412.27
2018-11-07T03:30:09.112Z,99406.78
2018-11-07T03:32:37.742Z,99402.98
2018-11-07T03:35:10.798Z,99409.83
2018-11-07T03:37:39.451Z,99405.69
2018-11-07T03:40:08.081Z,99418.59
2018-11-07T03:42:36.682Z,99416.53
2018-11-07T03:45:05.643Z,99428.05
2018-11-07T03:47:34.256Z,99422.63
2018-11-07T03:50:02.829Z,99425.66
2018-11-07T03:52:31.395Z,99428.61
2018-11-07T03:55:00.118Z,99431.39
2018-11-07T03:57:28.724Z,99425.05
2018-11-07T03:59:57.302Z,99425.86
2018-11-07T04:02:25.876Z,99415.86
2018-11-07T04:04:54.571Z,99410.79
2018-11-07T04:07:23.160Z,99407.23
2018-11-07T04:09:51.701Z,99411.95
2018-11-07T04:12:20.291Z,99411.37
2018-11-07T04:14:48.894Z,99407.19
2018-11-07T04:17:17.469Z,99410.84
2018-11-07T04:19:46.137Z,99411.77
2018-11-07T04:22:14.746Z,99416.45
2018-11-07T04:24:43.489Z,99412.81
2018-11-07T04:27:17.566Z,99414.59
2018-11-07T04:29:46.853Z,99415.51
2018-11-07T04:32:15.461Z,99416.11
2018-11-07T04:34:44.223Z,99418.13
2018-11-07T04:37:12.949Z,99416.89
2018-11-07T04:39:41.589Z,99422.95
2018-11-07T04:42:10.289Z,99426.38
2018-11-07T04:47:12.778Z,99418.89
2018-11-07T04:49:41.370Z,99429.09
2018-11-07T04:52:10.081Z,99426.05
2018-11-07T04:54:38.690Z,99427.75
2018-11-07T04:57:07.345Z,99424.42
2018-11-07T04:59:36.096Z,99422.38
2018-11-07T05:02:04.750Z,99423.23
2018-11-07T05:04:33.334Z,99421.47
2018-11-07T05:07:01.909Z,99433.41
2018-11-07T05:09:30.586Z,99439.36
2018-11-07T05:11:59.232Z,99444.89
2018-11-07T05:14:27.897Z,99446.25
2018-11-07T05:16:56.568Z,99451.78
2018-11-07T05:19:25.265Z,99454.36
2018-11-07T05:21:54.954Z,99442.12
2018-11-07T05:24:23.606Z,99450.59
2018-11-07T05:26:52.241Z,99457.44
2018-11-07T05:29:20.957Z,99463.82
2018-11-07T05:31:49.704Z,99471.02
2018-11-07T05:34:18.332Z,99465.44
2018-11-07T05:36:47.043Z,99468.42
2018-11-07T05:39:15.738Z,99473.20
2018-11-07T05:41:44.397Z,99470.12
2018-11-07T05:44:13.109Z,99472.16
2018-11-07T05:46:41.770Z,99475.14
2018-11-07T05:49:10.415Z,99475.97
2018-11-07T05:51:39.204Z,99474.34
2018-11-07T05:54:08.050Z,99481.65
2018-11-07T05:56:36.773Z,99480.85
2018-11-07T05:59:05.614Z,99480.40
2018-11-07T06:01:34.258Z,99480.42
2018-11-07T06:04:03.323Z,99481.28
2018-11-07T06:06:31.919Z,99487.70
2018-11-07T06:09:00.558Z,99485.95
2018-11-07T06:11:29.546Z,99491.00
2018-11-07T06:13:58.238Z,99494.40
2018-11-07T06:16:26.914Z,99486.75
2018-11-07T06:18:55.604Z,99483.75
2018-11-07T06:21:24.265Z,99485.82
2018-11-07T06:23:52.939Z,99490.89
2018-11-07T06:26:21.568Z,99490.79
2018-11-07T06:28:50.491Z,99498.33
2018-11-07T06:31:19.240Z,99495.33
2018-11-07T06:33:47.942Z,99504.23
2018-11-07T06:36:16.568Z,99502.87
2018-11-07T06:38:45.721Z,99497.63
2018-11-07T06:41:14.306Z,99505.89
2018-11-07T06:43:42.945Z,99506.56
2018-11-07T06:46:12.018Z,99501.30
2018-11-07T06:48:40.735Z,99505.53
2018-11-07T06:51:09.374Z,99502.47
2018-11-07T06:53:38.000Z,99503.71
2018-11-07T06:56:06.666Z,99507.97
2018-11-07T06:58:35.296Z,99517.22
2018-11-07T07:01:04.002Z,99516.22
2018-11-07T07:03:32.625Z,99520.78
2018-11-07T07:06:01.292Z,99534.81
2018-11-07T07:08:29.960Z,99525.73
2018-11-07T07:10:58.686Z,99530.92
2018-11-07T07:13:27.391Z,99524.92
2018-11-07T07:15:56.162Z,99518.48
2018-11-07T07:18:24.833Z,99516.25
2018-11-07T07:20:53.522Z,99519.28
2018-11-07T07:23:22.172Z,99517.88
2018-11-07T07:25:50.822Z,99523.38
2018-11-07T07:28:19.463Z,99525.89
2018-11-07T07:30:48.090Z,99521.58
2018-11-07T07:33:16.821Z,99526.52
2018-11-07T07:35:45.377Z,99531.77
2018-11-07T07:38:14.050Z,99526.66
2018-11-07T07:40:42.813Z,99528.17
2018-11-07T07:43:11.493Z,99521.57
2018-11-07T07:45:40.211Z,99527.50
2018-11-07T07:48:09.054Z,99525.21
2018-11-07T07:50:37.832Z,99525.10
2018-11-07T07:53:06.545Z,99525.91
2018-11-07T07:55:35.200Z,99527.34
2018-11-07T07:58:03.947Z,99529.73
2018-11-07T08:00:32.674Z,99533.96
2018-11-07T08:03:01.938Z,99532.94
2018-11-07T08:05:30.865Z,99530.63
2018-11-07T08:08:00.969Z,99540.44
2018-11-07T08:10:30.256Z,99533.25
2018-11-07T08:12:59.755Z,99529.05
2018-11-07T08:15:31.357Z,99530.05
2018-11-07T08:18:00.004Z,99539.70
2018-11-07T08:20:28.752Z,99537.38
2018-11-07T08:23:00.172Z,99538.41
2018-11-07T08:25:28.861Z,99525.76
2018-11-07T08:30:35.400Z,99530.86
2018-11-07T08:33:04.239Z,99535.71
2018-11-07T08:35:33.136Z,99534.77
2018-11-07T08:38:02.136Z,99536.77
2018-11-07T08:40:32.001Z,99533.72
2018-11-07T08:43:00.876Z,99538.36
2018-11-07T08:45:31.161Z,99544.48
2018-11-07T08:48:01.920Z,99534.59
2018-11-07T08:50:30.536Z,99533.80
2018-11-07T08:53:00.118Z,99534.70
2018-11-07T08:55:29.328Z,99535.85
2018-11-07T08:57:58.453Z,99534.93
2018-11-07T09:00:27.367Z,99536.55
2018-11-07T09:02:56.062Z,99535.85
2018-11-07T09:05:27.051Z,99533.95
2018-11-07T09:07:56.066Z,99536.93
2018-11-07T09:10:25.411Z,99531.35
2018-11-07T09:12:54.083Z,99530.78
2018-11-07T09:15:23.612Z,99527.66
2018-11-07T09:17:52.251Z,99520.08
2018-11-07T09:20:25.043Z,99512.91
2018-11-07T09:22:53.667Z,99514.45
2018-11-07T09:25:22.325Z,99523.77
2018-11-07T09:27:51.019Z,99517.55
2018-11-07T09:30:20.970Z,99520.37
2018-11-07T09:32:49.766Z,99508.60
2018-11-07T09:35:18.853Z,99511.47
2018-11-07T09:37:47.701Z,99510.88
2018-11-07T09:40:17.687Z,99506.27
2018-11-07T09:42:47.007Z,99507.55
2018-11-07T09:45:16.952Z,99503.94
2018-11-07T09:47:46.037Z,99498.08
2018-11-07T09:50:15.525Z,99498.31
2018-11-07T09:52:44.727Z,99491.77
2018-11-07T09:55:14.626Z,99485.95
2018-11-07T09:57:43.387Z,99480.02
2018-11-07T10:00:14.624Z,99476.45
2018-11-07T10:02:43.706Z,99476.38
2018-11-07T10:05:13.107Z,99477.50
2018-11-07T10:07:42.179Z,99487.49
2018-11-07T10:10:12.913Z,99483.12
2018-11-07T10:12:41.885Z,99483.21
2018-11-07T10:15:11.072Z,99486.76
2018-11-07T10:17:39.744Z,99482.70
2018-11-07T10:20:10.994Z,99482.92
2018-11-07T10:22:39.649Z,99485.91
2018-11-07T10:25:08.762Z,99492.17
2018-11-07T10:27:37.830Z,99490.52
2018-11-07T10:30:07.843Z,99498.15
2018-11-07T10:32:36.123Z,99491.27
2018-11-07T10:35:05.831Z,99491.14
2018-11-07T10:37:34.526Z,99483.72
2018-11-07T10:40:03.231Z,99479.03
2018-11-07T10:42:31.879Z,99476.98
2018-11-07T10:45:00.696Z,99479.55
2018-11-07T10:47:29.343Z,99478.50
2018-11-07T10:49:58.309Z,99470.64
2018-11-07T10:52:26.997Z,99473.20
2018-11-07T10:54:55.706Z,99459.15
2018-11-07T10:57:25.098Z,99452.72
2018-11-07T10:59:54.844Z,99455.38
2018-11-07T11:02:28.752Z,99444.17
2018-11-07T11:04:57.439Z,99454.33
2018-11-07T11:07:26.231Z,99452.00
2018-11-07T11:09:54.969Z,99445.02
2018-11-07T11:12:24.232Z,99450.09
2018-11-07T11:14:53.154Z,99440.29
2018-11-07T11:17:21.839Z,99443.72
2018-11-07T11:19:50.678Z,99430.37
2018-11-07T11:22:19.357Z,99443.12
2018-11-07T11:24:47.997Z,99434.67
2018-11-07T11:27:16.650Z,99430.52
2018-11-07T11:29:45.266Z,99435.69
2018-11-07T11:32:13.917Z,99426.67
2018-11-07T11:34:42.864Z,99424.07
2018-11-07T11:37:11.470Z,99432.71
2018-11-07T11:39:40.115Z,99426.97
2018-11-07T11:42:09.194Z,99422.70
2018-11-07T11:44:37.882Z,99416.97
2018-11-07T11:47:06.523Z,99415.48
2018-11-07T11:49:35.528Z,99409.16
2018-11-07T11:52:04.182Z,99402.10
2018-11-07T11:54:33.826Z,99403.67
2018-11-07T11:57:02.650Z,99399.94
2018-11-07T11:59:31.474Z,99386.11
2018-11-07T12:02:00.097Z,99395.08
2018-11-07T12:04:28.697Z,99384.42
2018-11-07T12:06:57.359Z,99381.07
2018-11-07T12:09:25.983Z,99374.52
2018-11-07T12:11:54.661Z,99379.08
2018-11-07T12:14:23.951Z,99380.28
2018-11-07T12:16:52.557Z,99379.92
2018-11-07T12:19:21.210Z,99382.36
2018-11-07T12:21:50.287Z,99383.30
2018-11-07T12:24:18.976Z,99376.91
2018-11-07T12:26:47.609Z,99369.39
2018-11-07T12:29:16.255Z,99378.23
2018-11-07T12:31:44.963Z,99379.53
2018-11-07T12:34:14.750Z,99377.38
2018-11-07T12:36:43.491Z,99366.09
2018-11-07T12:39:12.281Z,99363.92
2018-11-07T12:41:40.986Z,99357.77
2018-11-07T12:44:09.714Z,99357.10
2018-11-07T12:46:38.379Z,99363.69
2018-11-07T12:49:07.068Z,99361.20
2018-11-07T12:51:35.662Z,99361.06
2018-11-07T12:54:04.338Z,99368.20
2018-11-07T12:56:32.966Z,99362.27
2018-11-07T12:59:01.708Z,99350.48
2018-11-07T13:01:30.292Z,99361.23
2018-11-07T13:03:58.913Z,99363.12
2018-11-07T13:06:27.570Z,99365.80
2018-11-07T13:08:56.237Z,99361.55
2018-11-07T13:11:24.936Z,99372.02
2018-11-07T13:13:53.525Z,99370.20
2018-11-07T13:16:22.152Z,99376.43
2018-11-07T13:18:50.866Z,99374.61
2018-11-07T13:21:19.642Z,99379.02
2018-11-07T13:23:48.310Z,99386.88
2018-11-07T13:26:17.001Z,99390.62
2018-11-07T13:28:45.633Z,99390.75
2018-11-07T13:31:20.600Z,99385.53
2018-11-07T13:33:49.509Z,99394.91
2018-11-07T13:36:18.185Z,99391.92
2018-11-07T13:38:47.216Z,99392.11
2018-11-07T13:41:15.711Z,99390.51
2018-11-07T13:43:44.374Z,99382.89
2018-11-07T13:46:13.081Z,99378.30
2018-11-07T13:48:41.716Z,99372.55
2018-11-07T13:51:10.389Z,99373.68
2018-11-07T13:53:39.022Z,99375.90
2018-11-07T13:56:07.641Z,99366.88
2018-11-07T13:58:36.266Z,99376.95
2018-11-07T14:01:04.956Z,99384.01
2018-11-07T14:03:33.705Z,99381.25
2018-11-07T14:06:02.378Z,99374.08
2018-11-07T14:08:30.989Z,99372.81
2018-11-07T14:10:59.610Z,99362.08
2018-11-07T14:13:28.266Z,99360.27
2018-11-07T14:15:56.945Z,99360.91
2018-11-07T14:18:25.573Z,99367.36
2018-11-07T14:20:55.140Z,99362.20
2018-11-07T14:23:23.870Z,99363.54
2018-11-07T14:25:52.810Z,99366.44
2018-11-07T14:28:21.935Z,99367.00
2018-11-07T14:30:50.310Z,99368.22
2018-11-07T14:33:19.788Z,99348.70
2018-11-07T14:35:48.430Z,99347.27
2018-11-07T14:38:17.030Z,99339.92
2018-11-07T14:40:45.674Z,99337.64
2018-11-07T14:43:14.301Z,99331.54
2018-11-07T14:45:42.902Z,99339.58
2018-11-07T14:48:11.659Z,99326.14
2018-11-07T14:50:40.276Z,99327.44
2018-11-07T14:53:08.908Z,99330.66
2018-11-07T14:55:37.566Z,99336.48
2018-11-07T14:58:06.189Z,99348.03
2018-11-07T15:00:34.866Z,99342.00
2018-11-07T15:03:03.498Z,99353.38
2018-11-07T15:05:32.156Z,99361.01
2018-11-07T15:08:01.720Z,99364.59
2018-11-07T15:10:30.299Z,99370.47
2018-11-07T15:12:58.959Z,99366.58
2018-11-07T15:15:27.681Z,99363.55
2018-11-07T15:17:56.298Z,99373.69
2018-11-07T15:20:26.173Z,99360.98
2018-11-07T15:22:54.846Z,99362.90
2018-11-07T15:25:23.481Z,99359.70
2018-11-07T15:27:52.131Z,99364.27
2018-11-07T15:30:20.810Z,99367.64
2018-11-07T15:32:49.410Z,99365.31
2018-11-07T15:35:18.030Z,99362.97
2018-11-07T15:37:46.771Z,99362.34
2018-11-07T15:40:17.026Z,99370.14
2018-11-07T15:42:46.249Z,99380.16
2018-11-07T15:45:19.282Z,99381.34
2018-11-07T15:47:47.908Z,99377.41
2018-11-07T15:50:21.862Z,99382.38
2018-11-07T15:52:50.878Z,99380.55
2018-11-07T15:55:19.619Z,99383.97
2018-11-07T15:57:48.291Z,99384.02
2018-11-07T16:00:17.946Z,99382.03
2018-11-07T16:02:46.601Z,99392.60
2018-11-07T16:05:16.277Z,99399.45
2018-11-07T16:07:44.983Z,99396.97
2018-11-07T16:10:14.683Z,99409.91
2018-11-07T16:12:43.564Z,99417.68
2018-11-07T16:15:14.892Z,99411.56
2018-11-07T16:17:43.786Z,99416.40
2018-11-07T16:20:14.847Z,99415.19
2018-11-07T16:22:44.530Z,99401.28
2018-11-07T16:25:13.254Z,99399.45
2018-11-07T16:27:42.783Z,99399.34
2018-11-07T16:30:13.861Z,99390.46
2018-11-07T16:32:42.645Z,99401.78
2018-11-07T16:35:12.526Z,99399.76
2018-11-07T16:37:41.634Z,99404.62
2018-11-07T16:40:12.093Z,99403.06
2018-11-07T16:42:41.341Z,99401.18
2018-11-07T16:45:11.143Z,99398.61
2018-11-07T16:47:39.908Z,99396.83
2018-11-07T16:50:09.851Z,99397.16
2018-11-07T16:52:38.922Z,99412.52
2018-11-07T16:55:07.746Z,99419.10
2018-11-07T16:57:37.086Z,99420.28
2018-11-07T17:00:07.776Z,99420.30
2018-11-07T17:02:36.971Z,99423.50
2018-11-07T17:05:05.873Z,99424.09
2018-11-07T17:07:34.511Z,99422.85
2018-11-07T17:10:03.209Z,99425.04
2018-11-07T17:12:31.843Z,99421.42
2018-11-07T17:15:00.514Z,99424.21
2018-11-07T17:17:29.238Z,99418.28
2018-11-07T17:19:57.921Z,99423.11
2018-11-07T17:22:26.851Z,99418.05
2018-11-07T17:24:55.525Z,99423.33
2018-11-07T17:27:24.331Z,99422.11
2018-11-07T17:29:53.518Z,99418.72
2018-11-07T17:32:22.218Z,99422.69
2018-11-07T17:34:50.856Z,99426.41
2018-11-07T17:37:19.480Z,99424.55
2018-11-07T17:39:48.154Z,99425.97
2018-11-07T17:42:16.907Z,99422.73
2018-11-07T17:44:45.608Z,99421.53
2018-11-07T17:47:14.302Z,99423.82
2018-11-07T17:49:43.025Z,99422.53
2018-11-07T17:52:11.764Z,99427.41
2018-11-07T17:54:40.521Z,99432.24
2018-11-07T17:57:09.231Z,99437.86
2018-11-07T17:59:38.234Z,99443.05
2018-11-07T18:02:06.973Z,99438.20
2018-11-07T18:04:35.767Z,99434.88
2018-11-07T18:07:04.527Z,99433.21
2018-11-07T18:09:33.407Z,99433.08
2018-11-07T18:12:02.113Z,99431.42
2018-11-07T18:14:30.789Z,99428.95
2018-11-07T18:16:59.627Z,99431.65
2018-11-07T18:19:28.362Z,99434.41
2018-11-07T18:21:57.033Z,99430.30
2018-11-07T18:24:25.668Z,99428.77
2018-11-07T18:26:54.390Z,99433.97
2018-11-07T18:29:23.106Z,99434.40
2018-11-07T18:31:51.808Z,99441.76
2018-11-07T18:34:20.500Z,99440.11
2018-11-07T18:36:49.183Z,99445.80
2018-11-07T18:39:17.867Z,99446.41
2018-11-07T18:41:46.568Z,99449.34
2018-11-07T18:44:15.376Z,99454.09
2018-11-07T18:46:44.726Z,99454.03
2018-11-07T18:49:13.673Z,99451.05
2018-11-07T18:51:42.543Z,99453.36
2018-11-07T18:54:11.247Z,99458.80
2018-11-07T18:56:39.877Z,99459.41
2018-11-07T18:59:08.664Z,99457.16
2018-11-07T19:01:37.816Z,99459.52
2018-11-07T19:04:06.450Z,99459.53
2018-11-07T19:06:35.205Z,99453.94
2018-11-07T19:09:06.930Z,99453.91
2018-11-07T19:11:35.683Z,99450.48
2018-11-07T19:14:04.575Z,99450.39
2018-11-07T19:16:33.443Z,99450.80
2018-11-07T19:19:02.163Z,99453.81
2018-11-07T19:21:31.309Z,99450.08
2018-11-07T19:23:59.972Z,99449.58
2018-11-07T19:26:29.333Z,99448.62
2018-11-07T19:28:58.016Z,99447.94
2018-11-07T19:31:26.707Z,99461.91
2018-11-07T19:33:55.582Z,99454.70
2018-11-07T19:36:24.286Z,99459.95
2018-11-07T19:38:53.035Z,99460.02
2018-11-07T19:41:21.967Z,99454.95
2018-11-07T19:43:51.313Z,99458.80
2018-11-07T19:46:20.001Z,99466.23
2018-11-07T19:48:48.677Z,99462.64
2018-11-07T19:51:17.355Z,99471.45
2018-11-07T19:53:46.024Z,99470.23
2018-11-07T19:56:14.923Z,99464.47
2018-11-07T19:58:43.580Z,99464.34
2018-11-07T20:01:12.217Z,99464.45
2018-11-07T20:03:40.898Z,99469.58
2018-11-07T20:06:09.697Z,99468.69
2018-11-07T20:08:38.342Z,99471.30
2018-11-07T20:11:07.089Z,99469.16
2018-11-07T20:13:35.917Z,99467.98
2018-11-07T20:16:04.660Z,99466.34
2018-11-07T20:18:36.103Z,99470.61
2018-11-07T20:21:11.245Z,99468.00
2018-11-07T20:23:39.938Z,99468.67
2018-11-07T20:26:08.577Z,99464.34
2018-11-07T20:28:38.027Z,99464.64
2018-11-07T20:31:06.771Z,99471.61
2018-11-07T20:33:35.424Z,99469.97
2018-11-07T20:36:04.154Z,99477.33
2018-11-07T20:38:33.395Z,99475.91
2018-11-07T20:41:08.895Z,99475.66
2018-11-07T20:43:37.521Z,99475.21
2018-11-07T20:46:06.499Z,99476.88
2018-11-07T20:48:35.145Z,99482.11
2018-11-07T20:51:03.930Z,99480.55
2018-11-07T20:53:32.662Z,99476.92
2018-11-07T20:56:01.421Z,99478.25
2018-11-07T20:58:30.254Z,99481.30
2018-11-07T21:00:59.123Z,99491.21
2018-11-07T21:03:28.138Z,99481.34
2018-11-07T21:06:00.324Z,99486.09
2018-11-07T21:08:29.353Z,99484.77
2018-11-07T21:10:58.104Z,99482.53
2018-11-07T21:13:26.899Z,99485.34
2018-11-07T21:15:55.687Z,99483.27
2018-11-07T21:18:24.323Z,99481.79
2018-11-07T21:20:53.087Z,99483.06
2018-11-07T21:23:21.877Z,99481.13
2018-11-07T21:25:50.513Z,99486.79
2018-11-07T21:28:19.185Z,99486.73
2018-11-07T21:30:47.847Z,99480.23
2018-11-07T21:33:16.538Z,99480.17
2018-11-07T21:35:45.226Z,99486.73
2018-11-07T21:38:13.919Z,99483.48
2018-11-07T21:40:42.746Z,99485.60
2018-11-07T21:43:11.502Z,99487.41
2018-11-07T21:48:14.105Z,99497.66
2018-11-07T21:50:42.746Z,99492.63
2018-11-07T21:53:11.599Z,99494.33
2018-11-07T21:55:40.245Z,99493.54
2018-11-07T21:58:08.910Z,99488.22
2018-11-07T22:00:37.617Z,99490.03
2018-11-07T22:03:06.341Z,99493.15
2018-11-07T22:05:34.978Z,99494.95
2018-11-07T22:08:03.622Z,99489.03
2018-11-07T22:10:32.265Z,99493.00
2018-11-07T22:13:01.005Z,99492.23
2018-11-07T22:15:29.615Z,99495.59
2018-11-07T22:17:58.281Z,99499.43
2018-11-07T22:20:26.876Z,99497.34
2018-11-07T22:22:55.508Z,99499.05
2018-11-07T22:25:24.182Z,99500.83
2018-11-07T22:27:52.840Z,99505.14
2018-11-07T22:30:21.478Z,99502.16
2018-11-07T22:32:50.092Z,99510.33
2018-11-07T22:35:18.974Z,99508.63
2018-11-07T22:37:47.813Z,99509.02
2018-11-07T22:40:17.739Z,99509.91
2018-11-07T22:42:46.393Z,99506.11
2018-11-07T22:45:15.407Z,99502.73
2018-11-07T22:47:44.072Z,99501.89
2018-11-07T22:50:13.840Z,99507.34
2018-11-07T22:52:43.687Z,99505.72
2018-11-07T22:55:12.437Z,99507.89
2018-11-07T22:57:41.103Z,99510.52
2018-11-07T23:00:19.489Z,99504.87
2018-11-07T23:02:50.751Z,99509.59
2018-11-07T23:05:19.527Z,99512.16
2018-11-07T23:07:48.960Z,99507.04
2018-11-07T23:10:17.717Z,99509.98
2018-11-07T23:12:46.902Z,99513.00
2018-11-07T23:15:21.023Z,99516.02
2018-11-07T23:17:50.222Z,99519.47
2018-11-07T23:20:19.426Z,99516.53
2018-11-07T23:22:48.247Z,99517.84
2018-11-07T23:25:24.704Z,99514.47
2018-11-07T23:27:53.569Z,99515.86
2018-11-07T23:30:22.488Z,99514.26
2018-11-07T23:32:51.873Z,99518.13
2018-11-07T23:35:20.536Z,99520.29
2018-11-07T23:37:49.244Z,99521.63
2018-11-07T23:40:19.079Z,99528.48
2018-11-07T23:42:48.000Z,99522.55
2018-11-07T23:45:16.846Z,99531.42
2018-11-07T23:47:45.522Z,99530.94
2018-11-07T23:50:14.871Z,99524.97
2018-11-07T23:52:49.164Z,99530.11
2018-11-07T23:55:19.519Z,99531.48
2018-11-07T23:57:49.089Z,99536.20
